createdAt,value
2023-04-18T00:01:25.487Z,21.40
2023-04-18T00:03:52.344Z,18.08
2023-04-18T00:06:21.240Z,23.95
2023-04-18T00:08:48.361Z,20.85
2023-04-18T00:11:15.074Z,22.50
2023-04-18T00:13:41.852Z,22.23
2023-04-18T00:16:08.837Z,23.40
2023-04-18T00:18:36.917Z,20.00
2023-04-18T00:21:04.517Z,21.58
2023-04-18T00:23:31.294Z,20.23
2023-04-18T00:25:58.037Z,19.88
2023-04-18T00:28:24.865Z,22.00
2023-04-18T00:30:51.708Z,21.20
2023-04-18T00:33:18.665Z,19.20
2023-04-18T00:35:45.487Z,30.63
2023-04-18T00:38:12.121Z,20.77
2023-04-18T00:40:38.976Z,21.08
2023-04-18T00:43:07.896Z,18.40
2023-04-18T00:45:34.933Z,18.25
2023-04-18T00:48:01.856Z,19.95
2023-04-18T00:50:28.693Z,23.27
2023-04-18T00:52:55.931Z,22.02
2023-04-18T00:55:22.789Z,17.98
2023-04-18T00:57:49.438Z,23.13
2023-04-18T01:00:16.317Z,19.75
2023-04-18T01:02:43.223Z,20.92
2023-04-18T01:05:10.299Z,18.48
2023-04-18T01:07:40.756Z,17.27
2023-04-18T01:10:08.644Z,16.65
2023-04-18T01:12:37.323Z,17.00
2023-04-18T01:15:05.800Z,17.33
2023-04-18T01:17:34.537Z,15.38
2023-04-18T01:20:02.193Z,14.68
2023-04-18T01:22:29.122Z,17.45
2023-04-18T01:24:55.851Z,19.98
2023-04-18T01:27:22.892Z,20.30
2023-04-18T01:29:49.770Z,17.27
2023-04-18T01:32:17.869Z,17.55
2023-04-18T01:34:44.608Z,17.50
2023-04-18T01:37:11.214Z,20.88
2023-04-18T01:39:37.897Z,17.13
2023-04-18T01:42:04.616Z,17.00
2023-04-18T01:44:31.293Z,19.67
2023-04-18T01:46:58.064Z,18.70
2023-04-18T01:49:24.762Z,18.90
2023-04-18T01:51:51.412Z,26.15
2023-04-18T01:54:18.130Z,23.67
2023-04-18T01:56:44.854Z,18.90
2023-04-18T01:59:11.619Z,19.85
2023-04-18T02:01:38.255Z,21.25
2023-04-18T02:04:04.960Z,25.92
2023-04-18T02:06:31.898Z,24.08
2023-04-18T02:08:58.586Z,18.85
2023-04-18T02:11:25.440Z,17.88
2023-04-18T02:13:52.514Z,14.70
2023-04-18T02:16:19.257Z,19.35
2023-04-18T02:18:46.776Z,19.70
2023-04-18T02:21:13.446Z,20.83
2023-04-18T02:23:40.167Z,20.50
2023-04-18T02:26:06.820Z,24.40
2023-04-18T02:28:33.529Z,25.95
2023-04-18T02:31:00.290Z,20.42
2023-04-18T02:33:26.966Z,18.58
2023-04-18T02:35:53.613Z,22.92
2023-04-18T02:38:20.460Z,24.50
2023-04-18T02:40:47.171Z,21.35
2023-04-18T02:43:13.826Z,22.23
2023-04-18T02:45:40.665Z,23.00
2023-04-18T02:48:07.416Z,23.52
2023-04-18T02:50:35.511Z,22.10
2023-04-18T02:53:02.232Z,19.25
2023-04-18T02:55:28.973Z,20.92
2023-04-18T02:57:57.063Z,25.08
2023-04-18T03:00:23.818Z,21.00
2023-04-18T03:02:50.916Z,19.92
2023-04-18T03:05:17.765Z,25.75
2023-04-18T03:07:44.415Z,26.92
2023-04-18T03:10:11.104Z,24.40
2023-04-18T03:12:37.789Z,21.23
2023-04-18T03:15:04.918Z,24.08
2023-04-18T03:17:31.756Z,19.63
2023-04-18T03:19:58.440Z,23.02
2023-04-18T03:22:25.362Z,22.45
2023-04-18T03:24:52.088Z,20.83
2023-04-18T03:27:19.026Z,20.95
2023-04-18T03:29:45.793Z,23.77
2023-04-18T03:32:12.866Z,22.65
2023-04-18T03:34:39.707Z,22.17
2023-04-18T03:37:06.353Z,23.45
2023-04-18T03:39:33.056Z,27.65
2023-04-18T03:41:59.700Z,26.23
2023-04-18T03:44:26.318Z,24.08
2023-04-18T03:46:54.173Z,25.45
2023-04-18T03:49:20.798Z,27.75
2023-04-18T03:51:50.674Z,24.73
2023-04-18T03:54:17.640Z,22.98
2023-04-18T03:56:44.949Z,30.02
2023-04-18T03:59:12.017Z,24.08
2023-04-18T04:01:38.687Z,34.28
2023-04-18T04:04:05.741Z,28.35
2023-04-18T04:06:32.741Z,26.52
2023-04-18T04:08:59.469Z,23.02
2023-04-18T04:11:26.245Z,22.88
2023-04-18T04:13:53.325Z,31.85
2023-04-18T04:16:20.029Z,31.52
2023-04-18T04:18:46.714Z,23.20
2023-04-18T04:21:13.397Z,26.55
2023-04-18T04:23:42.724Z,21.38
2023-04-18T04:28:36.583Z,24.05
2023-04-18T04:31:06.439Z,27.95
2023-04-18T04:33:33.399Z,30.27
2023-04-18T04:36:01.340Z,22.27
2023-04-18T04:38:31.137Z,22.75
2023-04-18T04:40:58.367Z,23.98
2023-04-18T04:43:26.126Z,25.73
2023-04-18T04:45:53.733Z,18.90
2023-04-18T04:48:22.314Z,21.77
2023-04-18T04:50:53.331Z,22.63
2023-04-18T04:53:20.188Z,22.45
2023-04-18T04:55:46.954Z,17.23
2023-04-18T04:58:13.649Z,30.00
2023-04-18T05:00:40.462Z,25.20
2023-04-18T05:03:08.406Z,28.95
2023-04-18T05:05:35.783Z,27.50
2023-04-18T05:08:02.870Z,37.05
2023-04-18T05:10:30.437Z,27.25
2023-04-18T05:12:57.308Z,26.00
2023-04-18T05:15:24.818Z,26.88
2023-04-18T05:17:51.506Z,26.80
2023-04-18T05:20:18.294Z,22.15
2023-04-18T05:22:45.031Z,28.90
2023-04-18T05:25:12.611Z,38.30
2023-04-18T05:27:39.640Z,28.40
2023-04-18T05:30:07.079Z,25.30
2023-04-18T05:32:33.887Z,26.25
2023-04-18T05:37:44.699Z,25.63
2023-04-18T05:40:12.235Z,22.10
2023-04-18T05:42:39.928Z,28.92
2023-04-18T05:45:07.069Z,22.95
2023-04-18T05:47:33.868Z,24.10
2023-04-18T05:50:00.578Z,20.55
2023-04-18T05:52:27.290Z,29.98
2023-04-18T05:54:53.973Z,25.83
2023-04-18T05:57:20.659Z,29.50
2023-04-18T05:59:47.339Z,27.10
2023-04-18T06:02:14.037Z,23.95
2023-04-18T06:04:42.199Z,22.35
2023-04-18T06:07:09.927Z,21.55
2023-04-18T06:09:36.687Z,26.48
2023-04-18T06:12:03.594Z,18.88
2023-04-18T06:14:30.481Z,23.55
2023-04-18T06:16:57.184Z,23.55
2023-04-18T06:19:23.873Z,17.73
2023-04-18T06:21:50.772Z,23.75
2023-04-18T06:24:17.431Z,20.75
2023-04-18T06:26:44.093Z,19.02
2023-04-18T06:29:10.869Z,24.45
2023-04-18T06:31:37.578Z,18.23
2023-04-18T06:34:04.305Z,17.30
2023-04-18T06:36:31.582Z,39.05
2023-04-18T06:38:58.258Z,22.45
2023-04-18T06:41:24.935Z,24.77
2023-04-18T06:44:02.661Z,21.25
2023-04-18T06:46:30.866Z,23.38
2023-04-18T06:48:57.719Z,25.27
2023-04-18T06:51:24.531Z,22.90
2023-04-18T06:53:53.015Z,25.10
2023-04-18T06:56:20.784Z,24.48
2023-04-18T06:58:48.119Z,29.38
2023-04-18T07:01:14.901Z,20.92
2023-04-18T07:03:41.857Z,24.98
2023-04-18T07:06:10.583Z,27.25
2023-04-18T07:08:38.002Z,22.88
2023-04-18T07:11:06.089Z,38.65
2023-04-18T07:13:32.855Z,28.88
2023-04-18T07:15:59.506Z,28.42
2023-04-18T07:18:36.602Z,27.70
2023-04-18T07:21:07.690Z,23.67
2023-04-18T07:23:35.281Z,19.60
2023-04-18T07:26:02.938Z,22.55
2023-04-18T07:28:30.900Z,21.77
2023-04-18T07:30:57.821Z,19.63
2023-04-18T07:33:25.050Z,29.10
2023-04-18T07:35:52.517Z,24.08
2023-04-18T07:38:19.210Z,23.85
2023-04-18T07:40:45.912Z,19.00
2023-04-18T07:43:12.544Z,18.55
2023-04-18T07:45:39.363Z,19.35
2023-04-18T07:48:06.297Z,18.83
2023-04-18T07:50:33.005Z,18.45
2023-04-18T07:52:59.654Z,23.38
2023-04-18T07:55:26.502Z,23.25
2023-04-18T07:57:53.261Z,16.75
2023-04-18T08:00:20.305Z,18.73
2023-04-18T08:02:47.136Z,16.05
2023-04-18T08:05:13.986Z,17.85
2023-04-18T08:07:40.890Z,17.27
2023-04-18T08:10:08.136Z,22.92
2023-04-18T08:12:36.327Z,19.02
2023-04-18T08:15:04.170Z,19.35
2023-04-18T08:17:31.196Z,15.18
2023-04-18T08:19:57.869Z,19.77
2023-04-18T08:22:24.520Z,21.98
2023-04-18T08:25:03.728Z,16.38
2023-04-18T08:27:31.546Z,16.25
2023-04-18T08:29:58.340Z,17.73
2023-04-18T08:32:25.124Z,24.05
2023-04-18T08:34:51.867Z,18.80
2023-04-18T08:37:18.527Z,17.17
2023-04-18T08:39:45.184Z,19.75
2023-04-18T08:42:12.887Z,18.85
2023-04-18T08:44:39.642Z,21.55
2023-04-18T08:47:09.158Z,18.27
2023-04-18T08:49:36.316Z,26.58
2023-04-18T08:52:15.112Z,17.67
2023-04-18T08:54:43.116Z,24.58
2023-04-18T08:57:12.553Z,18.65
2023-04-18T08:59:40.251Z,26.48
2023-04-18T09:02:09.058Z,20.67
2023-04-18T09:04:38.284Z,20.45
2023-04-18T09:09:52.432Z,19.23
2023-04-18T09:12:25.391Z,17.42
2023-04-18T09:14:59.725Z,23.10
2023-04-18T09:17:42.536Z,22.13
2023-04-18T09:20:15.428Z,19.75
2023-04-18T09:22:53.516Z,21.10
2023-04-18T09:25:40.066Z,22.58
2023-04-18T09:28:28.924Z,15.27
2023-04-18T09:30:57.191Z,23.50
2023-04-18T09:33:34.040Z,24.58
2023-04-18T09:36:20.940Z,22.45
2023-04-18T09:38:50.154Z,21.65
2023-04-18T09:41:19.851Z,20.42
2023-04-18T09:43:47.627Z,24.08
2023-04-18T09:46:14.896Z,25.77
2023-04-18T09:48:42.051Z,25.15
2023-04-18T09:51:11.942Z,31.08
2023-04-18T09:53:40.643Z,25.58
2023-04-18T09:56:10.356Z,31.25
2023-04-18T09:58:41.156Z,19.58
2023-04-18T10:01:08.052Z,20.10
2023-04-18T10:03:42.403Z,16.23
2023-04-18T10:06:09.622Z,17.40
2023-04-18T10:08:36.588Z,26.70
2023-04-18T10:11:03.285Z,16.23
2023-04-18T10:13:30.073Z,18.70
2023-04-18T10:15:56.862Z,20.77
2023-04-18T10:18:24.513Z,24.60
2023-04-18T10:20:51.827Z,13.07
2023-04-18T10:23:40.705Z,17.35
2023-04-18T10:26:08.620Z,14.23
2023-04-18T10:28:56.446Z,13.55
2023-04-18T10:31:24.395Z,21.88
2023-04-18T10:36:28.655Z,20.25
2023-04-18T10:39:19.986Z,17.67
2023-04-18T10:41:51.182Z,18.27
2023-04-18T10:44:19.906Z,16.20
2023-04-18T10:46:52.802Z,18.23
2023-04-18T10:49:20.359Z,24.45
2023-04-18T10:51:48.344Z,16.30
2023-04-18T10:54:28.016Z,21.92
2023-04-18T10:56:55.984Z,26.40
2023-04-18T10:59:24.018Z,15.45
2023-04-18T11:01:56.312Z,17.65
2023-04-18T11:04:24.594Z,13.70
2023-04-18T11:06:57.519Z,17.20
2023-04-18T11:09:24.667Z,14.20
2023-04-18T11:12:06.260Z,15.07
2023-04-18T11:14:43.185Z,13.50
2023-04-18T11:17:36.300Z,15.52
2023-04-18T11:20:14.838Z,13.65
2023-04-18T11:22:48.648Z,15.68
2023-04-18T11:25:16.465Z,19.20
2023-04-18T11:27:47.846Z,19.25
2023-04-18T11:30:15.373Z,18.48
2023-04-18T11:32:42.146Z,14.68
2023-04-18T11:35:10.703Z,16.38
2023-04-18T11:37:38.464Z,26.52
2023-04-18T11:40:09.158Z,23.08
2023-04-18T11:42:37.653Z,20.27
2023-04-18T11:45:08.738Z,22.65
2023-04-18T11:47:35.466Z,21.20
2023-04-18T11:50:07.008Z,19.92
2023-04-18T11:52:34.404Z,18.58
2023-04-18T11:55:18.744Z,21.70
2023-04-18T11:57:59.350Z,25.35
2023-04-18T12:00:40.036Z,22.10
2023-04-18T12:03:11.877Z,20.70
2023-04-18T12:05:40.347Z,22.60
2023-04-18T12:08:10.196Z,19.40
2023-04-18T12:10:37.235Z,22.85
2023-04-18T12:13:07.754Z,20.23
2023-04-18T12:15:38.846Z,18.35
2023-04-18T12:18:08.295Z,16.15
2023-04-18T12:20:39.084Z,14.18
2023-04-18T12:23:06.511Z,12.43
2023-04-18T12:25:33.588Z,17.23
2023-04-18T12:28:18.623Z,16.25
2023-04-18T12:30:45.295Z,20.67
2023-04-18T12:33:12.579Z,16.95
2023-04-18T12:35:39.266Z,18.67
2023-04-18T12:38:06.005Z,19.98
2023-04-18T12:40:32.649Z,16.88
2023-04-18T12:43:00.496Z,19.75
2023-04-18T12:45:28.336Z,16.90
2023-04-18T12:47:55.094Z,21.20
2023-04-18T12:50:24.014Z,18.05
2023-04-18T12:52:52.623Z,23.20
2023-04-18T12:55:19.734Z,16.95
2023-04-18T12:57:46.506Z,23.75
2023-04-18T13:00:13.825Z,19.60
2023-04-18T13:02:42.661Z,17.38
2023-04-18T13:05:14.180Z,20.38
2023-04-18T13:07:42.605Z,18.10
2023-04-18T13:10:14.002Z,22.20
2023-04-18T13:12:41.551Z,16.77
2023-04-18T13:15:09.681Z,24.15
2023-04-18T13:17:37.149Z,18.55
2023-04-18T13:20:06.690Z,16.50
2023-04-18T13:22:33.972Z,14.60
2023-04-18T13:25:00.613Z,20.67
2023-04-18T13:27:27.304Z,14.05
2023-04-18T13:29:55.117Z,16.95
2023-04-18T13:32:21.947Z,15.45
2023-04-18T13:34:48.940Z,14.35
2023-04-18T13:37:15.690Z,18.63
2023-04-18T13:39:42.610Z,15.38
2023-04-18T13:42:09.507Z,16.70
2023-04-18T13:44:37.382Z,18.88
2023-04-18T13:47:05.160Z,20.58
2023-04-18T13:49:33.292Z,14.38
2023-04-18T13:52:00.093Z,19.15
2023-04-18T13:54:28.259Z,17.33
2023-04-18T13:56:57.443Z,19.30
2023-04-18T14:01:52.659Z,22.85
2023-04-18T14:04:21.329Z,18.13
2023-04-18T14:06:48.912Z,19.33
2023-04-18T14:09:16.782Z,18.05
2023-04-18T14:11:44.035Z,15.13
2023-04-18T14:14:10.738Z,20.98
2023-04-18T14:16:37.668Z,16.70
2023-04-18T14:19:04.470Z,17.50
2023-04-18T14:21:31.305Z,20.50
2023-04-18T14:23:58.180Z,18.30
2023-04-18T14:26:24.875Z,24.30
2023-04-18T14:28:51.658Z,15.32
2023-04-18T14:31:18.296Z,22.05
2023-04-18T14:33:45.071Z,22.77
2023-04-18T14:36:11.917Z,16.42
2023-04-18T14:38:38.564Z,19.70
2023-04-18T14:41:05.729Z,22.40
2023-04-18T14:43:32.663Z,19.17
2023-04-18T14:45:59.847Z,19.77
2023-04-18T14:48:27.556Z,23.15
2023-04-18T14:51:02.638Z,23.27
2023-04-18T14:53:29.526Z,23.23
2023-04-18T14:55:56.481Z,18.25
2023-04-18T14:58:23.225Z,25.00
2023-04-18T15:00:50.642Z,27.15
2023-04-18T15:03:17.561Z,19.17
2023-04-18T15:05:46.566Z,18.15
2023-04-18T15:08:14.585Z,25.45
2023-04-18T15:10:46.417Z,15.10
2023-04-18T15:13:13.202Z,19.88
2023-04-18T15:15:39.927Z,29.05
2023-04-18T15:18:08.312Z,26.83
2023-04-18T15:20:37.154Z,20.85
2023-04-18T15:23:03.980Z,20.40
2023-04-18T15:25:31.051Z,18.50
2023-04-18T15:27:58.554Z,17.02
2023-04-18T15:30:25.737Z,24.25
2023-04-18T15:32:54.023Z,17.83
2023-04-18T15:35:21.085Z,18.80
2023-04-18T15:37:49.046Z,26.63
2023-04-18T15:40:16.557Z,24.23
2023-04-18T15:42:43.834Z,23.35
2023-04-18T15:45:11.269Z,19.27
2023-04-18T15:47:38.860Z,22.88
2023-04-18T15:50:07.092Z,26.83
2023-04-18T15:52:33.886Z,20.15
2023-04-18T15:55:00.840Z,43.30
2023-04-18T15:57:29.910Z,26.38
2023-04-18T15:59:57.215Z,19.23
2023-04-18T16:02:24.023Z,18.85
2023-04-18T16:04:51.282Z,20.65
2023-04-18T16:07:19.914Z,29.33
2023-04-18T16:09:46.588Z,24.30
2023-04-18T16:12:13.321Z,24.48
2023-04-18T16:14:39.979Z,24.42
2023-04-18T16:17:06.628Z,39.33
2023-04-18T16:19:35.004Z,34.78
2023-04-18T16:22:02.982Z,22.83
2023-04-18T16:24:30.338Z,27.02
2023-04-18T16:26:57.125Z,21.00
2023-04-18T16:29:23.895Z,18.67
2023-04-18T16:31:51.753Z,16.77
2023-04-18T16:34:18.602Z,15.20
2023-04-18T16:36:45.256Z,17.30
2023-04-18T16:39:12.436Z,16.95
2023-04-18T16:41:39.182Z,14.35
2023-04-18T16:44:05.899Z,19.40
2023-04-18T16:46:32.767Z,19.23
2023-04-18T16:48:59.608Z,25.10
2023-04-18T16:51:27.090Z,18.35
2023-04-18T16:53:53.759Z,21.83
2023-04-18T16:56:20.704Z,22.10
2023-04-18T16:58:47.433Z,22.77
2023-04-18T17:01:14.197Z,18.42
2023-04-18T17:03:41.112Z,20.35
2023-04-18T17:06:07.880Z,22.30
2023-04-18T17:08:34.600Z,15.77
2023-04-18T17:11:02.328Z,22.13
2023-04-18T17:13:31.588Z,21.65
2023-04-18T17:18:25.244Z,24.92
2023-04-18T17:20:52.350Z,26.23
2023-04-18T17:23:19.028Z,24.13
2023-04-18T17:25:46.258Z,20.40
2023-04-18T17:28:13.973Z,32.72
2023-04-18T17:30:44.247Z,29.60
2023-04-18T17:33:11.144Z,29.58
2023-04-18T17:35:41.062Z,18.38
2023-04-18T17:38:08.372Z,17.35
2023-04-18T17:40:35.367Z,31.88
2023-04-18T17:43:02.037Z,21.95
2023-04-18T17:45:28.733Z,16.65
2023-04-18T17:47:57.621Z,28.65
2023-04-18T17:50:24.417Z,16.90
2023-04-18T17:52:51.062Z,19.52
2023-04-18T17:55:17.841Z,22.48
2023-04-18T17:57:44.655Z,16.67
2023-04-18T18:00:11.998Z,15.40
2023-04-18T18:02:38.926Z,16.65
2023-04-18T18:05:06.131Z,19.38
2023-04-18T18:07:37.196Z,19.35
2023-04-18T18:10:05.047Z,21.75
2023-04-18T18:12:32.383Z,39.78
2023-04-18T18:14:59.102Z,24.98
2023-04-18T18:17:25.951Z,16.85
2023-04-18T18:19:52.650Z,42.63
2023-04-18T18:22:21.334Z,70.13
2023-04-18T18:24:48.054Z,33.28
2023-04-18T18:27:14.808Z,28.70
2023-04-18T18:29:41.514Z,21.60
2023-04-18T18:32:08.171Z,29.23
2023-04-18T18:34:34.858Z,34.83
2023-04-18T18:37:01.561Z,29.27
2023-04-18T18:39:28.213Z,23.50
2023-04-18T18:41:54.898Z,27.38
2023-04-18T18:44:23.099Z,19.35
2023-04-18T18:46:49.807Z,21.55
2023-04-18T18:49:16.779Z,16.40
2023-04-18T18:51:44.435Z,18.73
2023-04-18T18:54:11.198Z,42.33
2023-04-18T18:56:39.794Z,37.05
2023-04-18T18:59:06.458Z,39.78
2023-04-18T19:01:33.141Z,37.90
2023-04-18T19:04:00.035Z,34.50
2023-04-18T19:06:27.667Z,28.83
2023-04-18T19:08:54.364Z,26.88
2023-04-18T19:11:21.099Z,32.40
2023-04-18T19:13:47.807Z,33.25
2023-04-18T19:16:14.515Z,28.63
2023-04-18T19:18:43.601Z,34.05
2023-04-18T19:21:10.413Z,31.05
2023-04-18T19:23:37.176Z,31.83
2023-04-18T19:26:03.888Z,33.33
2023-04-18T19:28:30.887Z,33.58
2023-04-18T19:30:57.558Z,39.63
2023-04-18T19:33:27.763Z,37.15
2023-04-18T19:35:54.693Z,42.63
2023-04-18T19:38:21.471Z,33.13
2023-04-18T19:40:48.192Z,36.63
2023-04-18T19:43:15.113Z,25.90
2023-04-18T19:45:42.114Z,31.08
2023-04-18T19:48:09.184Z,35.15
2023-04-18T19:50:35.928Z,28.80
2023-04-18T19:53:02.621Z,31.60
2023-04-18T19:55:29.344Z,32.92
2023-04-18T19:57:56.793Z,29.55
2023-04-18T20:00:23.470Z,35.00
2023-04-18T20:02:50.935Z,25.70
2023-04-18T20:05:18.738Z,34.70
2023-04-18T20:07:45.509Z,33.03
2023-04-18T20:10:12.337Z,28.35
2023-04-18T20:12:39.127Z,34.58
2023-04-18T20:15:06.231Z,37.63
2023-04-18T20:17:34.736Z,30.50
2023-04-18T20:20:01.823Z,21.25
2023-04-18T20:22:28.559Z,18.02
2023-04-18T20:24:57.339Z,21.80
2023-04-18T20:27:24.127Z,21.65
2023-04-18T20:29:50.935Z,22.48
2023-04-18T20:32:17.611Z,19.73
2023-04-18T20:34:45.866Z,21.67
2023-04-18T20:37:16.052Z,17.70
2023-04-18T20:39:42.732Z,28.15
2023-04-18T20:42:14.181Z,20.60
2023-04-18T20:44:46.911Z,19.45
2023-04-18T20:47:15.683Z,20.13
2023-04-18T20:49:42.820Z,24.60
2023-04-18T20:52:14.435Z,21.92
2023-04-18T20:54:41.881Z,22.30
2023-04-18T20:57:08.610Z,31.25
2023-04-18T20:59:35.525Z,26.40
2023-04-18T21:02:02.529Z,28.00
2023-04-18T21:04:29.693Z,24.58
2023-04-18T21:06:56.409Z,27.15
2023-04-18T21:09:23.171Z,20.73
2023-04-18T21:11:49.911Z,14.77
2023-04-18T21:14:17.282Z,15.18
2023-04-18T21:16:44.238Z,13.35
2023-04-18T21:19:11.074Z,17.60
2023-04-18T21:21:37.795Z,16.95
2023-04-18T21:24:05.769Z,18.85
2023-04-18T21:26:32.448Z,17.00
2023-04-18T21:29:01.060Z,18.73
2023-04-18T21:31:30.149Z,13.13
2023-04-18T21:33:58.562Z,14.30
2023-04-18T21:36:29.064Z,13.75
2023-04-18T21:38:56.869Z,13.52
2023-04-18T21:41:23.884Z,14.85
2023-04-18T21:43:50.955Z,12.20
2023-04-18T21:46:18.276Z,15.45
2023-04-18T21:48:46.522Z,14.23
2023-04-18T21:51:15.042Z,14.55
2023-04-18T21:53:42.106Z,11.98
2023-04-18T21:56:09.434Z,11.43
2023-04-18T21:58:36.191Z,13.35
2023-04-18T22:02:17.523Z,12.15
2023-04-18T22:04:44.315Z,10.60
2023-04-18T22:07:12.412Z,12.60
2023-04-18T22:09:39.079Z,10.90
2023-04-18T22:12:05.915Z,12.88
2023-04-18T22:14:32.580Z,11.48
2023-04-18T22:17:01.705Z,11.23
2023-04-18T22:19:29.581Z,11.65
2023-04-18T22:21:56.544Z,11.90
2023-04-18T22:24:24.692Z,14.05
2023-04-18T22:26:51.627Z,11.85
2023-04-18T22:29:18.364Z,10.57
2023-04-18T22:31:45.304Z,10.90
2023-04-18T22:34:12.041Z,11.60
2023-04-18T22:36:38.772Z,10.90
2023-04-18T22:39:06.272Z,11.80
2023-04-18T22:41:32.935Z,10.52
2023-04-18T22:43:59.576Z,10.35
2023-04-18T22:46:27.306Z,11.57
2023-04-18T22:48:54.375Z,13.20
2023-04-18T22:51:21.077Z,14.55
2023-04-18T22:53:47.762Z,10.68
2023-04-18T22:56:14.429Z,9.70
2023-04-18T22:58:41.157Z,13.55
2023-04-18T23:01:07.826Z,10.63
2023-04-18T23:03:34.772Z,11.02
2023-04-18T23:06:01.577Z,11.88
2023-04-18T23:08:28.375Z,11.23
2023-04-18T23:10:55.038Z,11.52
2023-04-18T23:13:21.767Z,14.02
2023-04-18T23:15:48.449Z,11.63
2023-04-18T23:18:15.382Z,12.63
2023-04-18T23:20:42.097Z,13.90
2023-04-18T23:23:08.744Z,11.43
2023-04-18T23:25:35.418Z,15.38
2023-04-18T23:28:02.192Z,10.15
2023-04-18T23:30:28.892Z,12.38
2023-04-18T23:32:55.870Z,15.88
2023-04-18T23:35:22.644Z,12.07
2023-04-18T23:37:50.220Z,15.38
2023-04-18T23:40:16.957Z,11.85
2023-04-18T23:42:44.021Z,14.98
2023-04-18T23:45:11.235Z,12.52
2023-04-18T23:47:37.938Z,13.68
2023-04-18T23:50:05.008Z,13.07
2023-04-18T23:52:31.655Z,11.60
2023-04-18T23:55:01.517Z,12.38
2023-04-18T23:57:28.261Z,10.98
2023-04-18T23:59:54.901Z,10.57
